x

Newport, Or (nwpo3) Weather Station

10:00pm - Tue 27th Sep 2016 All times are PDT. -7 hours from GMT.

  • Wind
    17mph, 18mph gusts
  • Air Temp 53°f
  • Sea Pressure 1018.3mb
  • Newport, Or
  • Newport, Or

More Historic Weather Station data

Upgrade to MSW Pro to gain access to the past 30 days of data for over 8000 Wavebouys and Weather Stations around the globe.

Join Pro

Comparision Forecast

View Surf forecast
   
Tue 09/27 10:00pm 17 18 mph 1018.3mb 53f
9:00pm 13 15 mph 1018.2mb 54f
8:00pm 20 22 mph 1017.9mb 54f
7:00pm 24 28 mph 1017.9mb 55f
6:00pm 25 29 mph 1018.2mb 55f
5:00pm 29 33 mph 1018.4mb 56f
4:00pm 26 30 mph 1019.1mb 55f
3:00pm 29 31 mph 1019.5mb 55f
2:00pm 26 31 mph 1020.1mb 56f
1:00pm 24 28 mph 1020.6mb 56f
12:00pm 25 28 mph 1021.1mb 56f
11:00am 23 25 mph 1021.5mb 56f
10:00am 15 18 mph 1021.9mb 56f
9:00am 9 10 mph 1021.8mb 56f
8:00am 5
mph
1021.5mb 55f
7:00am 2
mph
1021mb 56f
6:00am 10 13 mph 1020.8mb 57f
5:00am 9 11 mph 1020.6mb 56f
4:00am 11 13 mph 1020.6mb 56f
3:00am 7 8 mph 1020.5mb 56f
2:00am 8 9 mph 1020.5mb 56f
1:00am 14 15 mph 1020.3mb 57f
12:00am 8 9 mph 1020.3mb 56f
Mon 09/26 11:00pm 7 8 mph 1020.3mb 56f
10:00pm 6 7 mph 1020.2mb 56f
9:00pm 11 13 mph 1019.7mb 56f
8:00pm 13 16 mph 1019.3mb 56f
7:00pm 13 15 mph 1018.7mb 57f
6:00pm 11 13 mph 1018.1mb 57f
5:00pm 8 9 mph 1018.5mb 58f
4:00pm 8 10 mph 1018.6mb 58f
3:00pm 15 17 mph 1018.4mb 58f
2:00pm 9 10 mph 1018.4mb 57f
1:00pm 9 10 mph 1018.2mb 57f
12:00pm 13 14 mph 1017.8mb 58f
11:00am 10 13 mph 1017.6mb 57f
10:00am 7 8 mph 1017.3mb 65f
9:00am 7 8 mph 1017.6mb 59f
8:00am 2 3 mph 1017.5mb 55f
7:00am 5
mph
1017.6mb 56f
6:00am 8 10 mph 1017.4mb 56f
5:00am 6 7 mph 1017.2mb 58f
4:00am 1 2 mph 1017.5mb 56f
3:00am 7
mph
1018.1mb 58f
2:00am 7 8 mph 1018.6mb 59f
1:00am 3 5 mph 1019.2mb 60f
12:00am 7
mph
1019.6mb 60f
Sun 09/25 11:00pm 6
mph
1019.8mb 59f
10:00pm 6 7 mph 1020.2mb 60f
9:00pm 3
mph
1020.7mb 57f
8:00pm 13 14 mph 1021mb 58f
7:00pm 15 18 mph 1021.1mb 59f
6:00pm 18 21 mph 1021.6mb 59f
5:00pm 18 21 mph 1022.3mb 60f
4:00pm 21 22 mph 1023.1mb 60f
3:00pm 18 21 mph 1024mb 59f
2:00pm 16 20 mph 1024.8mb 61f
1:00pm 11 14 mph 1025.5mb 60f
12:00pm 13 14 mph 1026.2mb 57f
11:00am 7 8 mph 1026.7mb 59f
10:00am 9 11 mph 1027mb 64f
9:00am 8 9 mph 1027.1mb 61f
8:00am 7 9 mph 1026.8mb 57f
7:00am 6 7 mph 1026.8mb 56f
6:00am 10 14 mph 1026.6mb 55f
5:00am 10 11 mph 1026.8mb 55f
4:00am 7 8 mph 1027.2mb 55f
3:00am 8 10 mph 1027.5mb 55f
2:00am 7 8 mph 1028.2mb 55f
1:00am 6 7 mph 1028mb 56f
12:00am 6
mph
1028.1mb 56f
Sat 09/24 11:00pm 5
mph
1027.9mb 56f
10:00pm 5
mph
1027.4mb 57f
9:00pm 1 2 mph 1027.1mb 57f
8:00pm 1 2 mph 1026.4mb 58f
7:00pm 16 17 mph 1026mb 59f
6:00pm 15 16 mph 1025.9mb 59f
5:00pm 15 17 mph 1026.1mb 57f
4:00pm 15 16 mph 1026.3mb 56f
3:00pm 11 14 mph 1026.3mb 56f
2:00pm 9 10 mph 1026.8mb 56f
1:00pm 5 8 mph 1027.3mb 59f
12:00pm 6 9 mph 1027.8mb 60f
11:00am 5 8 mph 1027.9mb 59f
10:00am 9 11 mph 1027.7mb 56f
9:00am 6 7 mph 1027.7mb 52f
8:00am 3 5 mph 1027.3mb 51f
7:00am 6 7 mph 1026.6mb 51f